sensor_id;sensor_type;location;lat;lon;timestamp;temperature;humidity
12704;DHT22;6416;52.182;7.650;2023-04-06T00:00:24;7.60;34.70
12704;DHT22;6416;52.182;7.650;2023-04-06T00:02:49;7.60;34.70
12704;DHT22;6416;52.182;7.650;2023-04-06T00:05:15;7.50;34.70
12704;DHT22;6416;52.182;7.650;2023-04-06T00:07:40;7.50;34.80
12704;DHT22;6416;52.182;7.650;2023-04-06T00:10:06;7.40;34.80
12704;DHT22;6416;52.182;7.650;2023-04-06T00:12:32;7.40;34.90
12704;DHT22;6416;52.182;7.650;2023-04-06T00:14:57;7.30;34.80
12704;DHT22;6416;52.182;7.650;2023-04-06T00:17:26;7.30;34.90
12704;DHT22;6416;52.182;7.650;2023-04-06T00:19:51;7.30;34.90
12704;DHT22;6416;52.182;7.650;2023-04-06T00:22:17;7.30;34.90
12704;DHT22;6416;52.182;7.650;2023-04-06T00:24:42;7.20;34.90
12704;DHT22;6416;52.182;7.650;2023-04-06T00:27:08;7.20;35.00
12704;DHT22;6416;52.182;7.650;2023-04-06T00:29:33;7.20;35.00
12704;DHT22;6416;52.182;7.650;2023-04-06T00:31:59;7.10;35.00
12704;DHT22;6416;52.182;7.650;2023-04-06T00:34:24;7.10;35.00
12704;DHT22;6416;52.182;7.650;2023-04-06T00:36:50;7.10;35.20
12704;DHT22;6416;52.182;7.650;2023-04-06T00:39:15;7.00;35.10
12704;DHT22;6416;52.182;7.650;2023-04-06T00:41:46;7.00;35.20
12704;DHT22;6416;52.182;7.650;2023-04-06T00:44:14;7.00;35.60
12704;DHT22;6416;52.182;7.650;2023-04-06T00:46:39;7.00;35.20
12704;DHT22;6416;52.182;7.650;2023-04-06T00:49:05;6.90;35.20
12704;DHT22;6416;52.182;7.650;2023-04-06T00:51:30;6.90;35.30
12704;DHT22;6416;52.182;7.650;2023-04-06T00:53:56;6.90;35.30
12704;DHT22;6416;52.182;7.650;2023-04-06T00:56:21;6.90;35.40
12704;DHT22;6416;52.182;7.650;2023-04-06T00:58:47;6.80;35.40
12704;DHT22;6416;52.182;7.650;2023-04-06T01:01:12;6.80;35.50
12704;DHT22;6416;52.182;7.650;2023-04-06T01:03:38;6.70;35.40
12704;DHT22;6416;52.182;7.650;2023-04-06T01:06:03;6.70;35.50
12704;DHT22;6416;52.182;7.650;2023-04-06T01:08:29;6.70;35.50
12704;DHT22;6416;52.182;7.650;2023-04-06T01:10:54;6.70;35.50
12704;DHT22;6416;52.182;7.650;2023-04-06T01:13:20;6.60;35.50
12704;DHT22;6416;52.182;7.650;2023-04-06T01:15:46;6.60;35.60
12704;DHT22;6416;52.182;7.650;2023-04-06T01:18:12;6.60;35.70
12704;DHT22;6416;52.182;7.650;2023-04-06T01:20:37;6.50;35.50
12704;DHT22;6416;52.182;7.650;2023-04-06T01:23:03;6.50;35.70
12704;DHT22;6416;52.182;7.650;2023-04-06T01:25:28;6.50;35.80
12704;DHT22;6416;52.182;7.650;2023-04-06T01:27:54;6.50;35.90
12704;DHT22;6416;52.182;7.650;2023-04-06T01:30:19;6.40;35.80
12704;DHT22;6416;52.182;7.650;2023-04-06T01:32:45;6.40;35.90
12704;DHT22;6416;52.182;7.650;2023-04-06T01:35:10;6.40;36.00
12704;DHT22;6416;52.182;7.650;2023-04-06T01:37:36;6.40;36.00
12704;DHT22;6416;52.182;7.650;2023-04-06T01:40:01;6.40;36.00
12704;DHT22;6416;52.182;7.650;2023-04-06T01:42:27;6.30;36.00
12704;DHT22;6416;52.182;7.650;2023-04-06T01:44:52;6.30;36.10
12704;DHT22;6416;52.182;7.650;2023-04-06T01:47:18;6.20;36.20
12704;DHT22;6416;52.182;7.650;2023-04-06T01:49:43;6.20;36.30
12704;DHT22;6416;52.182;7.650;2023-04-06T01:52:09;6.20;36.40
12704;DHT22;6416;52.182;7.650;2023-04-06T01:54:34;6.20;36.50
12704;DHT22;6416;52.182;7.650;2023-04-06T01:57:00;6.10;36.50
12704;DHT22;6416;52.182;7.650;2023-04-06T01:59:25;6.10;36.50
12704;DHT22;6416;52.182;7.650;2023-04-06T02:01:51;6.10;36.60
12704;DHT22;6416;52.182;7.650;2023-04-06T02:04:16;6.00;36.60
12704;DHT22;6416;52.182;7.650;2023-04-06T02:06:42;6.00;36.70
12704;DHT22;6416;52.182;7.650;2023-04-06T02:09:07;6.00;36.80
12704;DHT22;6416;52.182;7.650;2023-04-06T02:11:32;6.00;37.00
12704;DHT22;6416;52.182;7.650;2023-04-06T02:13:58;5.90;36.90
12704;DHT22;6416;52.182;7.650;2023-04-06T02:16:23;5.90;37.10
12704;DHT22;6416;52.182;7.650;2023-04-06T02:18:49;5.90;37.10
12704;DHT22;6416;52.182;7.650;2023-04-06T02:21:15;5.90;37.20
12704;DHT22;6416;52.182;7.650;2023-04-06T02:23:40;5.90;37.10
12704;DHT22;6416;52.182;7.650;2023-04-06T02:26:06;5.80;37.10
12704;DHT22;6416;52.182;7.650;2023-04-06T02:28:31;5.80;37.20
12704;DHT22;6416;52.182;7.650;2023-04-06T02:30:57;5.70;37.20
12704;DHT22;6416;52.182;7.650;2023-04-06T02:33:22;5.70;37.30
12704;DHT22;6416;52.182;7.650;2023-04-06T02:35:48;5.70;37.40
12704;DHT22;6416;52.182;7.650;2023-04-06T02:38:13;5.60;37.30
12704;DHT22;6416;52.182;7.650;2023-04-06T02:40:39;5.60;37.30
12704;DHT22;6416;52.182;7.650;2023-04-06T02:43:04;5.60;37.50
12704;DHT22;6416;52.182;7.650;2023-04-06T02:45:30;5.60;38.20
12704;DHT22;6416;52.182;7.650;2023-04-06T02:47:55;5.50;37.60
12704;DHT22;6416;52.182;7.650;2023-04-06T02:50:21;5.50;37.60
12704;DHT22;6416;52.182;7.650;2023-04-06T02:52:46;5.50;37.70
12704;DHT22;6416;52.182;7.650;2023-04-06T02:55:12;5.40;37.70
12704;DHT22;6416;52.182;7.650;2023-04-06T02:57:37;5.40;37.80
12704;DHT22;6416;52.182;7.650;2023-04-06T03:00:03;5.40;37.90
12704;DHT22;6416;52.182;7.650;2023-04-06T03:02:29;5.30;37.90
12704;DHT22;6416;52.182;7.650;2023-04-06T03:04:54;5.30;37.90
12704;DHT22;6416;52.182;7.650;2023-04-06T03:07:20;5.30;37.90
12704;DHT22;6416;52.182;7.650;2023-04-06T03:09:45;5.30;37.90
12704;DHT22;6416;52.182;7.650;2023-04-06T03:12:11;5.20;37.90
12704;DHT22;6416;52.182;7.650;2023-04-06T03:14:36;5.20;38.60
12704;DHT22;6416;52.182;7.650;2023-04-06T03:17:02;5.20;38.00
12704;DHT22;6416;52.182;7.650;2023-04-06T03:19:27;5.10;38.60
12704;DHT22;6416;52.182;7.650;2023-04-06T03:21:53;5.10;38.00
12704;DHT22;6416;52.182;7.650;2023-04-06T03:24:18;5.10;38.00
12704;DHT22;6416;52.182;7.650;2023-04-06T03:26:44;5.10;38.00
12704;DHT22;6416;52.182;7.650;2023-04-06T03:29:12;5.10;38.10
12704;DHT22;6416;52.182;7.650;2023-04-06T03:31:38;5.10;39.00
12704;DHT22;6416;52.182;7.650;2023-04-06T03:34:03;5.10;38.10
12704;DHT22;6416;52.182;7.650;2023-04-06T03:36:29;5.00;38.00
12704;DHT22;6416;52.182;7.650;2023-04-06T03:38:54;5.00;38.00
12704;DHT22;6416;52.182;7.650;2023-04-06T03:41:19;5.00;38.10
12704;DHT22;6416;52.182;7.650;2023-04-06T03:43:45;5.00;38.10
12704;DHT22;6416;52.182;7.650;2023-04-06T03:46:11;5.00;38.10
12704;DHT22;6416;52.182;7.650;2023-04-06T03:48:36;5.00;38.20
12704;DHT22;6416;52.182;7.650;2023-04-06T03:51:02;5.00;38.30
12704;DHT22;6416;52.182;7.650;2023-04-06T03:53:27;4.90;38.20
12704;DHT22;6416;52.182;7.650;2023-04-06T03:55:53;4.90;38.20
12704;DHT22;6416;52.182;7.650;2023-04-06T03:58:18;4.90;38.30
12704;DHT22;6416;52.182;7.650;2023-04-06T04:00:44;4.90;38.40
12704;DHT22;6416;52.182;7.650;2023-04-06T04:03:09;4.90;38.50
12704;DHT22;6416;52.182;7.650;2023-04-06T04:05:35;4.80;38.40
12704;DHT22;6416;52.182;7.650;2023-04-06T04:08:00;4.80;38.50
12704;DHT22;6416;52.182;7.650;2023-04-06T04:10:26;4.80;38.50
12704;DHT22;6416;52.182;7.650;2023-04-06T04:12:51;4.70;38.40
12704;DHT22;6416;52.182;7.650;2023-04-06T04:15:16;4.70;38.50
12704;DHT22;6416;52.182;7.650;2023-04-06T04:17:42;4.70;38.50
12704;DHT22;6416;52.182;7.650;2023-04-06T04:20:08;4.70;38.60
12704;DHT22;6416;52.182;7.650;2023-04-06T04:22:33;4.70;38.60
12704;DHT22;6416;52.182;7.650;2023-04-06T04:24:59;4.70;38.70
12704;DHT22;6416;52.182;7.650;2023-04-06T04:27:24;4.70;38.80
12704;DHT22;6416;52.182;7.650;2023-04-06T04:29:50;4.60;38.70
12704;DHT22;6416;52.182;7.650;2023-04-06T04:32:15;4.70;38.80
12704;DHT22;6416;52.182;7.650;2023-04-06T04:34:41;4.70;38.80
12704;DHT22;6416;52.182;7.650;2023-04-06T04:37:06;4.70;38.80
12704;DHT22;6416;52.182;7.650;2023-04-06T04:39:32;4.70;38.90
12704;DHT22;6416;52.182;7.650;2023-04-06T04:41:58;4.70;38.80
12704;DHT22;6416;52.182;7.650;2023-04-06T04:44:23;4.60;39.10
12704;DHT22;6416;52.182;7.650;2023-04-06T04:46:49;4.60;39.20
12704;DHT22;6416;52.182;7.650;2023-04-06T04:49:14;4.60;39.20
12704;DHT22;6416;52.182;7.650;2023-04-06T04:51:40;4.60;39.20
12704;DHT22;6416;52.182;7.650;2023-04-06T04:54:05;4.60;39.20
12704;DHT22;6416;52.182;7.650;2023-04-06T04:56:31;4.50;39.20
12704;DHT22;6416;52.182;7.650;2023-04-06T04:58:56;4.50;39.20
12704;DHT22;6416;52.182;7.650;2023-04-06T05:01:22;4.50;39.20
12704;DHT22;6416;52.182;7.650;2023-04-06T05:03:47;4.50;39.30
12704;DHT22;6416;52.182;7.650;2023-04-06T05:06:13;4.50;39.30
12704;DHT22;6416;52.182;7.650;2023-04-06T05:08:38;4.50;39.40
12704;DHT22;6416;52.182;7.650;2023-04-06T05:11:04;4.50;39.40
12704;DHT22;6416;52.182;7.650;2023-04-06T05:13:30;4.50;39.40
12704;DHT22;6416;52.182;7.650;2023-04-06T05:15:55;4.50;39.50
12704;DHT22;6416;52.182;7.650;2023-04-06T05:18:21;4.50;39.50
12704;DHT22;6416;52.182;7.650;2023-04-06T05:20:47;4.50;39.70
12704;DHT22;6416;52.182;7.650;2023-04-06T05:23:12;4.60;39.90
12704;DHT22;6416;52.182;7.650;2023-04-06T05:25:38;4.60;39.90
12704;DHT22;6416;52.182;7.650;2023-04-06T05:28:03;4.70;40.00
12704;DHT22;6416;52.182;7.650;2023-04-06T05:30:29;4.70;40.00
12704;DHT22;6416;52.182;7.650;2023-04-06T05:32:54;4.80;40.00
12704;DHT22;6416;52.182;7.650;2023-04-06T05:35:20;4.80;40.00
12704;DHT22;6416;52.182;7.650;2023-04-06T05:37:45;4.90;40.20
12704;DHT22;6416;52.182;7.650;2023-04-06T05:40:11;5.10;40.70
12704;DHT22;6416;52.182;7.650;2023-04-06T05:42:41;5.30;41.10
12704;DHT22;6416;52.182;7.650;2023-04-06T05:45:07;5.50;41.50
12704;DHT22;6416;52.182;7.650;2023-04-06T05:47:33;5.80;41.80
12704;DHT22;6416;52.182;7.650;2023-04-06T05:49:58;6.10;41.90
12704;DHT22;6416;52.182;7.650;2023-04-06T05:52:24;6.50;41.90
12704;DHT22;6416;52.182;7.650;2023-04-06T05:54:49;6.80;41.90
12704;DHT22;6416;52.182;7.650;2023-04-06T05:57:15;7.10;41.80
12704;DHT22;6416;52.182;7.650;2023-04-06T05:59:40;7.50;41.60
12704;DHT22;6416;52.182;7.650;2023-04-06T06:02:06;7.80;41.30
12704;DHT22;6416;52.182;7.650;2023-04-06T06:04:31;8.20;41.30
12704;DHT22;6416;52.182;7.650;2023-04-06T06:06:57;8.50;41.00
12704;DHT22;6416;52.182;7.650;2023-04-06T06:09:22;8.80;40.80
12704;DHT22;6416;52.182;7.650;2023-04-06T06:11:48;9.10;40.40
12704;DHT22;6416;52.182;7.650;2023-04-06T06:14:14;9.30;40.40
12704;DHT22;6416;52.182;7.650;2023-04-06T06:16:39;9.60;40.40
12704;DHT22;6416;52.182;7.650;2023-04-06T06:19:05;9.90;40.30
12704;DHT22;6416;52.182;7.650;2023-04-06T06:21:30;10.20;39.30
12704;DHT22;6416;52.182;7.650;2023-04-06T06:23:56;10.40;39.10
12704;DHT22;6416;52.182;7.650;2023-04-06T06:26:21;10.70;39.00
12704;DHT22;6416;52.182;7.650;2023-04-06T06:28:47;10.90;38.70
12704;DHT22;6416;52.182;7.650;2023-04-06T06:31:12;11.20;38.60
12704;DHT22;6416;52.182;7.650;2023-04-06T06:33:38;11.50;38.70
12704;DHT22;6416;52.182;7.650;2023-04-06T06:36:03;11.70;38.60
12704;DHT22;6416;52.182;7.650;2023-04-06T06:38:29;12.00;38.50
12704;DHT22;6416;52.182;7.650;2023-04-06T06:40:55;12.30;38.30
12704;DHT22;6416;52.182;7.650;2023-04-06T06:43:20;12.60;38.20
12704;DHT22;6416;52.182;7.650;2023-04-06T06:45:46;12.80;37.90
12704;DHT22;6416;52.182;7.650;2023-04-06T06:48:11;13.10;38.10
12704;DHT22;6416;52.182;7.650;2023-04-06T06:50:37;13.30;38.00
12704;DHT22;6416;52.182;7.650;2023-04-06T06:53:02;13.60;37.60
12704;DHT22;6416;52.182;7.650;2023-04-06T06:55:28;13.80;37.30
12704;DHT22;6416;52.182;7.650;2023-04-06T06:57:53;14.10;37.20
12704;DHT22;6416;52.182;7.650;2023-04-06T07:00:19;14.30;36.90
12704;DHT22;6416;52.182;7.650;2023-04-06T07:02:45;14.50;36.50
12704;DHT22;6416;52.182;7.650;2023-04-06T07:05:10;14.70;36.10
12704;DHT22;6416;52.182;7.650;2023-04-06T07:07:36;14.80;36.10
12704;DHT22;6416;52.182;7.650;2023-04-06T07:10:01;14.90;36.00
12704;DHT22;6416;52.182;7.650;2023-04-06T07:12:27;15.10;36.00
12704;DHT22;6416;52.182;7.650;2023-04-06T07:14:52;15.20;35.90
12704;DHT22;6416;52.182;7.650;2023-04-06T07:17:18;15.40;36.20
12704;DHT22;6416;52.182;7.650;2023-04-06T07:19:44;15.60;36.40
12704;DHT22;6416;52.182;7.650;2023-04-06T07:22:09;16.00;36.40
12704;DHT22;6416;52.182;7.650;2023-04-06T07:24:35;16.20;35.80
12704;DHT22;6416;52.182;7.650;2023-04-06T07:27:00;16.50;35.20
12704;DHT22;6416;52.182;7.650;2023-04-06T07:29:26;16.60;34.90
12704;DHT22;6416;52.182;7.650;2023-04-06T07:31:52;16.80;34.50
12704;DHT22;6416;52.182;7.650;2023-04-06T07:34:17;16.90;34.20
12704;DHT22;6416;52.182;7.650;2023-04-06T07:36:43;17.10;34.00
12704;DHT22;6416;52.182;7.650;2023-04-06T07:39:08;17.20;34.00
12704;DHT22;6416;52.182;7.650;2023-04-06T07:41:34;17.30;33.90
12704;DHT22;6416;52.182;7.650;2023-04-06T07:43:59;17.40;33.50
12704;DHT22;6416;52.182;7.650;2023-04-06T07:46:25;17.50;33.20
12704;DHT22;6416;52.182;7.650;2023-04-06T07:48:50;17.60;33.40
12704;DHT22;6416;52.182;7.650;2023-04-06T07:51:16;17.80;33.50
12704;DHT22;6416;52.182;7.650;2023-04-06T07:53:41;17.90;33.70
12704;DHT22;6416;52.182;7.650;2023-04-06T07:56:07;18.20;34.10
12704;DHT22;6416;52.182;7.650;2023-04-06T07:58:32;18.40;33.60
12704;DHT22;6416;52.182;7.650;2023-04-06T08:00:58;18.70;34.00
12704;DHT22;6416;52.182;7.650;2023-04-06T08:03:23;19.00;32.70
12704;DHT22;6416;52.182;7.650;2023-04-06T08:05:49;19.30;33.00
12704;DHT22;6416;52.182;7.650;2023-04-06T08:08:14;19.50;32.10
12704;DHT22;6416;52.182;7.650;2023-04-06T08:10:40;19.70;32.50
12704;DHT22;6416;52.182;7.650;2023-04-06T08:13:05;19.90;31.90
12704;DHT22;6416;52.182;7.650;2023-04-06T08:15:31;20.10;31.60
12704;DHT22;6416;52.182;7.650;2023-04-06T08:17:56;20.30;31.30
12704;DHT22;6416;52.182;7.650;2023-04-06T08:20:22;20.50;31.90
12704;DHT22;6416;52.182;7.650;2023-04-06T08:22:47;20.80;31.60
12704;DHT22;6416;52.182;7.650;2023-04-06T08:25:13;21.00;31.70
12704;DHT22;6416;52.182;7.650;2023-04-06T08:27:38;21.30;31.90
12704;DHT22;6416;52.182;7.650;2023-04-06T08:30:04;21.60;30.80
12704;DHT22;6416;52.182;7.650;2023-04-06T08:32:30;21.90;30.90
12704;DHT22;6416;52.182;7.650;2023-04-06T08:34:55;22.10;30.70
12704;DHT22;6416;52.182;7.650;2023-04-06T08:37:21;22.40;30.90
12704;DHT22;6416;52.182;7.650;2023-04-06T08:39:47;22.50;29.90
12704;DHT22;6416;52.182;7.650;2023-04-06T08:42:18;22.70;30.00
12704;DHT22;6416;52.182;7.650;2023-04-06T08:44:44;22.90;29.70
12704;DHT22;6416;52.182;7.650;2023-04-06T08:47:10;23.10;29.30
12704;DHT22;6416;52.182;7.650;2023-04-06T08:49:37;23.20;29.40
12704;DHT22;6416;52.182;7.650;2023-04-06T08:52:07;23.30;28.70
12704;DHT22;6416;52.182;7.650;2023-04-06T08:54:33;23.50;28.70
12704;DHT22;6416;52.182;7.650;2023-04-06T08:56:59;23.60;28.70
12704;DHT22;6416;52.182;7.650;2023-04-06T08:59:26;23.70;29.60
12704;DHT22;6416;52.182;7.650;2023-04-06T09:01:53;23.90;29.40
12704;DHT22;6416;52.182;7.650;2023-04-06T09:04:19;24.30;29.70
12704;DHT22;6416;52.182;7.650;2023-04-06T09:06:45;24.60;29.10
12704;DHT22;6416;52.182;7.650;2023-04-06T09:09:10;24.90;29.10
12704;DHT22;6416;52.182;7.650;2023-04-06T09:11:49;25.10;28.10
12704;DHT22;6416;52.182;7.650;2023-04-06T09:14:16;25.30;28.00
12704;DHT22;6416;52.182;7.650;2023-04-06T09:16:43;25.50;27.60
12704;DHT22;6416;52.182;7.650;2023-04-06T09:19:10;25.60;27.90
12704;DHT22;6416;52.182;7.650;2023-04-06T09:21:36;25.80;27.60
12704;DHT22;6416;52.182;7.650;2023-04-06T09:24:05;26.00;27.40
12704;DHT22;6416;52.182;7.650;2023-04-06T09:26:31;26.20;27.70
12704;DHT22;6416;52.182;7.650;2023-04-06T09:28:57;26.50;28.10
12704;DHT22;6416;52.182;7.650;2023-04-06T09:31:23;26.80;28.20
12704;DHT22;6416;52.182;7.650;2023-04-06T09:33:49;27.10;28.00
12704;DHT22;6416;52.182;7.650;2023-04-06T09:36:15;27.50;27.60
12704;DHT22;6416;52.182;7.650;2023-04-06T09:38:59;27.80;26.90
12704;DHT22;6416;52.182;7.650;2023-04-06T09:41:26;28.00;25.70
12704;DHT22;6416;52.182;7.650;2023-04-06T09:44:01;28.20;26.30
12704;DHT22;6416;52.182;7.650;2023-04-06T09:46:27;28.40;26.30
12704;DHT22;6416;52.182;7.650;2023-04-06T09:48:56;28.60;26.20
12704;DHT22;6416;52.182;7.650;2023-04-06T09:51:22;28.80;25.80
12704;DHT22;6416;52.182;7.650;2023-04-06T09:53:59;29.00;26.20
12704;DHT22;6416;52.182;7.650;2023-04-06T09:56:37;29.30;25.90
12704;DHT22;6416;52.182;7.650;2023-04-06T09:59:07;29.70;25.60
12704;DHT22;6416;52.182;7.650;2023-04-06T10:01:35;29.90;24.80
12704;DHT22;6416;52.182;7.650;2023-04-06T10:06:32;30.30;24.90
12704;DHT22;6416;52.182;7.650;2023-04-06T10:08:58;30.50;24.70
12704;DHT22;6416;52.182;7.650;2023-04-06T10:11:25;30.70;24.80
12704;DHT22;6416;52.182;7.650;2023-04-06T10:13:50;30.80;24.40
12704;DHT22;6416;52.182;7.650;2023-04-06T10:16:16;30.90;23.30
12704;DHT22;6416;52.182;7.650;2023-04-06T10:18:47;31.00;23.40
12704;DHT22;6416;52.182;7.650;2023-04-06T10:21:21;31.00;22.60
12704;DHT22;6416;52.182;7.650;2023-04-06T10:23:53;31.00;22.50
12704;DHT22;6416;52.182;7.650;2023-04-06T10:26:22;31.10;23.30
12704;DHT22;6416;52.182;7.650;2023-04-06T10:28:54;31.20;23.20
12704;DHT22;6416;52.182;7.650;2023-04-06T10:31:38;31.30;22.80
12704;DHT22;6416;52.182;7.650;2023-04-06T10:34:04;31.30;21.30
12704;DHT22;6416;52.182;7.650;2023-04-06T10:36:42;31.30;22.00
12704;DHT22;6416;52.182;7.650;2023-04-06T10:39:27;31.30;22.20
12704;DHT22;6416;52.182;7.650;2023-04-06T10:41:52;31.40;21.80
12704;DHT22;6416;52.182;7.650;2023-04-06T10:44:46;31.40;21.90
12704;DHT22;6416;52.182;7.650;2023-04-06T10:47:20;31.50;21.20
12704;DHT22;6416;52.182;7.650;2023-04-06T10:49:53;31.50;21.20
12704;DHT22;6416;52.182;7.650;2023-04-06T10:54:53;31.30;21.30
12704;DHT22;6416;52.182;7.650;2023-04-06T10:57:28;31.00;20.60
12704;DHT22;6416;52.182;7.650;2023-04-06T10:59:54;30.50;20.20
12704;DHT22;6416;52.182;7.650;2023-04-06T11:02:20;30.10;20.50
12704;DHT22;6416;52.182;7.650;2023-04-06T11:04:57;29.50;20.30
12704;DHT22;6416;52.182;7.650;2023-04-06T11:07:24;28.90;20.50
12704;DHT22;6416;52.182;7.650;2023-04-06T11:09:50;28.40;21.40
12704;DHT22;6416;52.182;7.650;2023-04-06T11:12:27;28.00;20.90
12704;DHT22;6416;52.182;7.650;2023-04-06T11:17:28;26.30;20.80
12704;DHT22;6416;52.182;7.650;2023-04-06T11:19:55;26.10;20.80
12704;DHT22;6416;52.182;7.650;2023-04-06T11:22:20;25.90;20.90
12704;DHT22;6416;52.182;7.650;2023-04-06T11:24:46;25.70;21.30
12704;DHT22;6416;52.182;7.650;2023-04-06T11:27:12;25.60;21.60
12704;DHT22;6416;52.182;7.650;2023-04-06T11:29:38;25.50;21.80
12704;DHT22;6416;52.182;7.650;2023-04-06T11:32:05;25.40;21.80
12704;DHT22;6416;52.182;7.650;2023-04-06T11:34:35;25.40;21.80
12704;DHT22;6416;52.182;7.650;2023-04-06T11:37:02;25.30;21.80
12704;DHT22;6416;52.182;7.650;2023-04-06T11:39:29;25.10;21.90
12704;DHT22;6416;52.182;7.650;2023-04-06T11:41:58;25.10;22.20
12704;DHT22;6416;52.182;7.650;2023-04-06T11:46:57;25.40;23.00
12704;DHT22;6416;52.182;7.650;2023-04-06T11:49:30;25.60;23.50
12704;DHT22;6416;52.182;7.650;2023-04-06T11:51:56;25.80;23.90
12704;DHT22;6416;52.182;7.650;2023-04-06T11:54:38;26.10;23.50
12704;DHT22;6416;52.182;7.650;2023-04-06T11:57:04;26.30;22.90
12704;DHT22;6416;52.182;7.650;2023-04-06T11:59:31;26.40;22.30
12704;DHT22;6416;52.182;7.650;2023-04-06T12:01:57;26.40;22.00
12704;DHT22;6416;52.182;7.650;2023-04-06T12:04:23;26.20;21.50
12704;DHT22;6416;52.182;7.650;2023-04-06T12:06:48;26.10;21.40
12704;DHT22;6416;52.182;7.650;2023-04-06T12:09:14;25.80;21.40
12704;DHT22;6416;52.182;7.650;2023-04-06T12:11:40;25.60;21.40
12704;DHT22;6416;52.182;7.650;2023-04-06T12:14:05;25.40;21.20
12704;DHT22;6416;52.182;7.650;2023-04-06T12:16:31;25.30;21.40
12704;DHT22;6416;52.182;7.650;2023-04-06T12:18:57;25.10;21.70
12704;DHT22;6416;52.182;7.650;2023-04-06T12:21:22;25.10;21.80
12704;DHT22;6416;52.182;7.650;2023-04-06T12:23:48;25.00;21.60
12704;DHT22;6416;52.182;7.650;2023-04-06T12:26:13;25.00;21.90
12704;DHT22;6416;52.182;7.650;2023-04-06T12:28:39;25.00;22.10
12704;DHT22;6416;52.182;7.650;2023-04-06T12:31:04;25.00;21.80
12704;DHT22;6416;52.182;7.650;2023-04-06T12:33:30;24.90;21.80
12704;DHT22;6416;52.182;7.650;2023-04-06T12:35:55;24.90;22.00
12704;DHT22;6416;52.182;7.650;2023-04-06T12:38:21;24.90;22.30
12704;DHT22;6416;52.182;7.650;2023-04-06T12:40:46;24.80;21.90
12704;DHT22;6416;52.182;7.650;2023-04-06T12:43:12;24.80;21.80
12704;DHT22;6416;52.182;7.650;2023-04-06T12:45:37;24.80;21.70
12704;DHT22;6416;52.182;7.650;2023-04-06T12:48:03;24.70;21.80
12704;DHT22;6416;52.182;7.650;2023-04-06T12:50:28;24.70;21.60
12704;DHT22;6416;52.182;7.650;2023-04-06T12:52:54;24.60;21.60
12704;DHT22;6416;52.182;7.650;2023-04-06T12:55:19;24.60;21.70
12704;DHT22;6416;52.182;7.650;2023-04-06T12:57:45;24.60;21.60
12704;DHT22;6416;52.182;7.650;2023-04-06T13:00:11;24.50;21.40
12704;DHT22;6416;52.182;7.650;2023-04-06T13:02:36;24.40;21.20
12704;DHT22;6416;52.182;7.650;2023-04-06T13:05:02;24.30;21.20
12704;DHT22;6416;52.182;7.650;2023-04-06T13:07:27;24.20;21.30
12704;DHT22;6416;52.182;7.650;2023-04-06T13:09:53;24.10;21.40
12704;DHT22;6416;52.182;7.650;2023-04-06T13:12:18;24.10;21.40
12704;DHT22;6416;52.182;7.650;2023-04-06T13:14:44;24.00;21.30
12704;DHT22;6416;52.182;7.650;2023-04-06T13:17:09;24.00;21.40
12704;DHT22;6416;52.182;7.650;2023-04-06T13:19:35;23.90;21.50
12704;DHT22;6416;52.182;7.650;2023-04-06T13:22:00;23.90;21.40
12704;DHT22;6416;52.182;7.650;2023-04-06T13:24:26;23.80;21.50
12704;DHT22;6416;52.182;7.650;2023-04-06T13:26:51;23.80;21.40
12704;DHT22;6416;52.182;7.650;2023-04-06T13:29:17;23.80;21.40
12704;DHT22;6416;52.182;7.650;2023-04-06T13:31:42;23.80;21.50
12704;DHT22;6416;52.182;7.650;2023-04-06T13:34:08;23.80;21.80
12704;DHT22;6416;52.182;7.650;2023-04-06T13:36:33;23.60;21.50
12704;DHT22;6416;52.182;7.650;2023-04-06T13:38:59;23.60;21.50
12704;DHT22;6416;52.182;7.650;2023-04-06T13:41:25;23.70;21.40
12704;DHT22;6416;52.182;7.650;2023-04-06T13:43:51;23.70;21.50
12704;DHT22;6416;52.182;7.650;2023-04-06T13:46:17;23.70;21.60
12704;DHT22;6416;52.182;7.650;2023-04-06T13:48:43;23.70;21.60
12704;DHT22;6416;52.182;7.650;2023-04-06T13:51:12;23.60;21.50
12704;DHT22;6416;52.182;7.650;2023-04-06T13:53:39;23.50;21.30
12704;DHT22;6416;52.182;7.650;2023-04-06T13:56:05;23.40;21.20
12704;DHT22;6416;52.182;7.650;2023-04-06T13:58:30;23.30;21.10
12704;DHT22;6416;52.182;7.650;2023-04-06T14:01:02;23.20;21.10
12704;DHT22;6416;52.182;7.650;2023-04-06T14:03:28;23.00;20.90
12704;DHT22;6416;52.182;7.650;2023-04-06T14:05:53;22.80;20.90
12704;DHT22;6416;52.182;7.650;2023-04-06T14:08:19;22.70;21.30
12704;DHT22;6416;52.182;7.650;2023-04-06T14:10:44;22.50;21.40
12704;DHT22;6416;52.182;7.650;2023-04-06T14:13:10;22.30;21.50
12704;DHT22;6416;52.182;7.650;2023-04-06T14:15:35;22.20;21.70
12704;DHT22;6416;52.182;7.650;2023-04-06T14:18:01;22.10;22.00
12704;DHT22;6416;52.182;7.650;2023-04-06T14:20:26;22.00;22.10
12704;DHT22;6416;52.182;7.650;2023-04-06T14:22:55;22.00;22.30
12704;DHT22;6416;52.182;7.650;2023-04-06T14:25:20;21.90;22.40
12704;DHT22;6416;52.182;7.650;2023-04-06T14:27:46;21.80;22.30
12704;DHT22;6416;52.182;7.650;2023-04-06T14:30:12;21.80;22.60
12704;DHT22;6416;52.182;7.650;2023-04-06T14:32:37;21.70;22.70
12704;DHT22;6416;52.182;7.650;2023-04-06T14:35:04;21.70;22.80
12704;DHT22;6416;52.182;7.650;2023-04-06T14:37:30;21.60;22.70
12704;DHT22;6416;52.182;7.650;2023-04-06T14:39:55;21.50;22.70
12704;DHT22;6416;52.182;7.650;2023-04-06T14:42:21;21.50;22.70
12704;DHT22;6416;52.182;7.650;2023-04-06T14:44:46;21.40;22.80
12704;DHT22;6416;52.182;7.650;2023-04-06T14:47:12;21.30;22.90
12704;DHT22;6416;52.182;7.650;2023-04-06T14:49:37;21.20;22.90
12704;DHT22;6416;52.182;7.650;2023-04-06T14:52:03;21.10;23.10
12704;DHT22;6416;52.182;7.650;2023-04-06T14:54:28;21.00;23.20
12704;DHT22;6416;52.182;7.650;2023-04-06T14:56:54;20.90;23.30
12704;DHT22;6416;52.182;7.650;2023-04-06T14:59:19;20.80;23.40
12704;DHT22;6416;52.182;7.650;2023-04-06T15:01:45;20.70;23.40
12704;DHT22;6416;52.182;7.650;2023-04-06T15:04:10;20.70;23.60
12704;DHT22;6416;52.182;7.650;2023-04-06T15:06:36;20.60;23.80
12704;DHT22;6416;52.182;7.650;2023-04-06T15:09:02;20.60;24.00
12704;DHT22;6416;52.182;7.650;2023-04-06T15:11:27;20.60;24.30
12704;DHT22;6416;52.182;7.650;2023-04-06T15:13:53;20.50;24.50
12704;DHT22;6416;52.182;7.650;2023-04-06T15:16:18;20.40;24.40
12704;DHT22;6416;52.182;7.650;2023-04-06T15:18:44;20.40;24.70
12704;DHT22;6416;52.182;7.650;2023-04-06T15:21:09;20.40;24.90
12704;DHT22;6416;52.182;7.650;2023-04-06T15:23:35;20.30;25.00
12704;DHT22;6416;52.182;7.650;2023-04-06T15:26:00;20.30;25.10
12704;DHT22;6416;52.182;7.650;2023-04-06T15:28:26;20.40;25.20
12704;DHT22;6416;52.182;7.650;2023-04-06T15:30:52;20.40;25.20
12704;DHT22;6416;52.182;7.650;2023-04-06T15:33:19;20.40;25.10
12704;DHT22;6416;52.182;7.650;2023-04-06T15:35:46;20.40;25.10
12704;DHT22;6416;52.182;7.650;2023-04-06T15:38:12;20.40;25.30
12704;DHT22;6416;52.182;7.650;2023-04-06T15:40:45;20.40;25.50
12704;DHT22;6416;52.182;7.650;2023-04-06T15:43:11;20.40;25.80
12704;DHT22;6416;52.182;7.650;2023-04-06T15:45:36;20.30;25.90
12704;DHT22;6416;52.182;7.650;2023-04-06T15:48:02;20.30;25.90
12704;DHT22;6416;52.182;7.650;2023-04-06T15:50:27;20.20;26.00
12704;DHT22;6416;52.182;7.650;2023-04-06T15:52:53;20.20;26.00
12704;DHT22;6416;52.182;7.650;2023-04-06T15:55:18;20.10;26.10